sensor_id;sensor_type;location;lat;lon;timestamp;P1;durP1;ratioP1;P2;durP2;ratioP2
31537;SDS011;18147;51.952;6.146;2023-06-14T00:01:02;8.65;;;4.28;;
31537;SDS011;18147;51.952;6.146;2023-06-14T00:03:28;9.20;;;4.15;;
31537;SDS011;18147;51.952;6.146;2023-06-14T00:05:54;9.55;;;5.05;;
31537;SDS011;18147;51.952;6.146;2023-06-14T00:08:19;13.07;;;5.30;;
31537;SDS011;18147;51.952;6.146;2023-06-14T00:10:46;14.25;;;4.93;;
31537;SDS011;18147;51.952;6.146;2023-06-14T00:13:12;10.15;;;4.53;;
31537;SDS011;18147;51.952;6.146;2023-06-14T00:15:38;12.52;;;5.05;;
31537;SDS011;18147;51.952;6.146;2023-06-14T00:18:06;9.10;;;4.78;;
31537;SDS011;18147;51.952;6.146;2023-06-14T00:20:32;11.02;;;4.97;;
31537;SDS011;18147;51.952;6.146;2023-06-14T00:22:59;9.23;;;4.50;;
31537;SDS011;18147;51.952;6.146;2023-06-14T00:25:25;7.68;;;4.57;;
31537;SDS011;18147;51.952;6.146;2023-06-14T00:27:51;7.07;;;4.55;;
31537;SDS011;18147;51.952;6.146;2023-06-14T00:30:17;11.27;;;5.15;;
31537;SDS011;18147;51.952;6.146;2023-06-14T00:32:43;8.00;;;4.03;;
31537;SDS011;18147;51.952;6.146;2023-06-14T00:35:09;13.75;;;5.03;;
31537;SDS011;18147;51.952;6.146;2023-06-14T00:37:36;8.98;;;4.55;;
31537;SDS011;18147;51.952;6.146;2023-06-14T00:40:03;10.88;;;5.00;;
31537;SDS011;18147;51.952;6.146;2023-06-14T00:42:29;12.85;;;5.03;;
31537;SDS011;18147;51.952;6.146;2023-06-14T00:44:56;7.65;;;3.90;;
31537;SDS011;18147;51.952;6.146;2023-06-14T00:47:23;9.48;;;4.78;;
31537;SDS011;18147;51.952;6.146;2023-06-14T00:49:51;13.32;;;4.80;;
31537;SDS011;18147;51.952;6.146;2023-06-14T00:52:18;13.60;;;4.70;;
31537;SDS011;18147;51.952;6.146;2023-06-14T00:54:44;7.32;;;4.88;;
31537;SDS011;18147;51.952;6.146;2023-06-14T00:57:10;9.93;;;4.43;;
31537;SDS011;18147;51.952;6.146;2023-06-14T00:59:46;8.75;;;5.05;;
31537;SDS011;18147;51.952;6.146;2023-06-14T01:02:13;13.77;;;4.75;;
31537;SDS011;18147;51.952;6.146;2023-06-14T01:04:43;8.70;;;4.57;;
31537;SDS011;18147;51.952;6.146;2023-06-14T01:15:37;10.85;;;4.72;;
31537;SDS011;18147;51.952;6.146;2023-06-14T01:18:08;13.43;;;4.43;;
31537;SDS011;18147;51.952;6.146;2023-06-14T01:20:42;17.45;;;4.95;;
31537;SDS011;18147;51.952;6.146;2023-06-14T01:23:10;5.75;;;4.13;;
31537;SDS011;18147;51.952;6.146;2023-06-14T01:25:40;8.00;;;5.10;;
31537;SDS011;18147;51.952;6.146;2023-06-14T01:28:10;11.88;;;4.95;;
31537;SDS011;18147;51.952;6.146;2023-06-14T01:30:41;10.73;;;4.60;;
31537;SDS011;18147;51.952;6.146;2023-06-14T01:33:21;6.25;;;4.68;;
31537;SDS011;18147;51.952;6.146;2023-06-14T01:35:49;11.38;;;4.70;;
31537;SDS011;18147;51.952;6.146;2023-06-14T01:38:20;10.60;;;4.22;;
31537;SDS011;18147;51.952;6.146;2023-06-14T01:40:47;7.25;;;4.05;;
31537;SDS011;18147;51.952;6.146;2023-06-14T01:43:16;9.27;;;4.32;;
31537;SDS011;18147;51.952;6.146;2023-06-14T01:45:44;7.50;;;4.22;;
31537;SDS011;18147;51.952;6.146;2023-06-14T01:48:12;11.75;;;5.03;;
31537;SDS011;18147;51.952;6.146;2023-06-14T01:50:41;8.32;;;5.20;;
31537;SDS011;18147;51.952;6.146;2023-06-14T01:53:07;8.30;;;4.95;;
31537;SDS011;18147;51.952;6.146;2023-06-14T01:55:41;9.63;;;4.68;;
31537;SDS011;18147;51.952;6.146;2023-06-14T01:58:10;10.77;;;4.78;;
31537;SDS011;18147;51.952;6.146;2023-06-14T02:00:36;7.55;;;4.03;;
31537;SDS011;18147;51.952;6.146;2023-06-14T02:03:02;11.98;;;5.32;;
31537;SDS011;18147;51.952;6.146;2023-06-14T02:05:29;11.63;;;4.35;;
31537;SDS011;18147;51.952;6.146;2023-06-14T02:07:55;8.10;;;4.95;;
31537;SDS011;18147;51.952;6.146;2023-06-14T02:10:21;8.85;;;4.53;;
31537;SDS011;18147;51.952;6.146;2023-06-14T02:12:47;9.13;;;4.88;;
31537;SDS011;18147;51.952;6.146;2023-06-14T02:15:13;13.43;;;5.15;;
31537;SDS011;18147;51.952;6.146;2023-06-14T02:17:45;9.32;;;4.57;;
31537;SDS011;18147;51.952;6.146;2023-06-14T02:20:12;5.85;;;4.40;;
31537;SDS011;18147;51.952;6.146;2023-06-14T02:22:39;11.00;;;4.38;;
31537;SDS011;18147;51.952;6.146;2023-06-14T02:25:06;10.10;;;4.43;;
31537;SDS011;18147;51.952;6.146;2023-06-14T02:27:35;12.63;;;4.43;;
31537;SDS011;18147;51.952;6.146;2023-06-14T02:30:02;8.00;;;4.68;;
31537;SDS011;18147;51.952;6.146;2023-06-14T02:32:31;9.10;;;5.32;;
31537;SDS011;18147;51.952;6.146;2023-06-14T02:34:59;13.80;;;4.93;;
31537;SDS011;18147;51.952;6.146;2023-06-14T02:37:24;12.65;;;4.95;;
31537;SDS011;18147;51.952;6.146;2023-06-14T02:39:52;11.40;;;4.75;;
31537;SDS011;18147;51.952;6.146;2023-06-14T02:42:17;9.30;;;4.45;;
31537;SDS011;18147;51.952;6.146;2023-06-14T02:44:43;13.80;;;5.55;;
31537;SDS011;18147;51.952;6.146;2023-06-14T02:47:10;5.57;;;4.47;;
31537;SDS011;18147;51.952;6.146;2023-06-14T02:49:37;11.48;;;4.82;;
31537;SDS011;18147;51.952;6.146;2023-06-14T02:52:06;8.50;;;4.05;;
31537;SDS011;18147;51.952;6.146;2023-06-14T02:54:35;10.10;;;4.90;;
31537;SDS011;18147;51.952;6.146;2023-06-14T02:57:01;7.60;;;4.95;;
31537;SDS011;18147;51.952;6.146;2023-06-14T02:59:27;7.43;;;4.32;;
31537;SDS011;18147;51.952;6.146;2023-06-14T03:01:54;9.20;;;5.10;;
31537;SDS011;18147;51.952;6.146;2023-06-14T03:04:20;11.57;;;5.03;;
31537;SDS011;18147;51.952;6.146;2023-06-14T03:06:46;11.35;;;5.18;;
31537;SDS011;18147;51.952;6.146;2023-06-14T03:09:16;9.20;;;4.68;;
31537;SDS011;18147;51.952;6.146;2023-06-14T03:11:42;9.65;;;4.80;;
31537;SDS011;18147;51.952;6.146;2023-06-14T03:14:08;9.52;;;4.97;;
31537;SDS011;18147;51.952;6.146;2023-06-14T03:16:37;6.93;;;4.55;;
31537;SDS011;18147;51.952;6.146;2023-06-14T03:19:03;6.78;;;4.35;;
31537;SDS011;18147;51.952;6.146;2023-06-14T03:21:30;8.68;;;4.72;;
31537;SDS011;18147;51.952;6.146;2023-06-14T03:23:58;14.13;;;5.38;;
31537;SDS011;18147;51.952;6.146;2023-06-14T03:26:24;12.20;;;4.72;;
31537;SDS011;18147;51.952;6.146;2023-06-14T03:28:52;12.13;;;5.45;;
31537;SDS011;18147;51.952;6.146;2023-06-14T03:31:18;7.68;;;5.40;;
31537;SDS011;18147;51.952;6.146;2023-06-14T03:33:44;7.43;;;4.45;;
31537;SDS011;18147;51.952;6.146;2023-06-14T03:36:10;15.68;;;5.30;;
31537;SDS011;18147;51.952;6.146;2023-06-14T03:38:36;12.70;;;4.85;;
31537;SDS011;18147;51.952;6.146;2023-06-14T03:41:03;7.93;;;4.03;;
31537;SDS011;18147;51.952;6.146;2023-06-14T03:43:29;10.38;;;4.93;;
31537;SDS011;18147;51.952;6.146;2023-06-14T03:45:55;12.60;;;4.55;;
31537;SDS011;18147;51.952;6.146;2023-06-14T03:48:23;12.32;;;4.97;;
31537;SDS011;18147;51.952;6.146;2023-06-14T03:50:49;11.52;;;4.78;;
31537;SDS011;18147;51.952;6.146;2023-06-14T03:53:15;11.55;;;4.50;;
31537;SDS011;18147;51.952;6.146;2023-06-14T03:55:44;7.80;;;4.72;;
31537;SDS011;18147;51.952;6.146;2023-06-14T03:58:10;5.50;;;4.45;;
31537;SDS011;18147;51.952;6.146;2023-06-14T04:00:37;12.75;;;4.93;;
31537;SDS011;18147;51.952;6.146;2023-06-14T04:03:05;8.38;;;5.03;;
31537;SDS011;18147;51.952;6.146;2023-06-14T04:05:31;6.43;;;3.80;;
31537;SDS011;18147;51.952;6.146;2023-06-14T04:07:57;7.85;;;4.43;;
31537;SDS011;18147;51.952;6.146;2023-06-14T04:10:24;6.50;;;4.25;;
31537;SDS011;18147;51.952;6.146;2023-06-14T04:12:50;8.75;;;4.80;;
31537;SDS011;18147;51.952;6.146;2023-06-14T04:15:16;6.32;;;4.40;;
31537;SDS011;18147;51.952;6.146;2023-06-14T04:17:43;9.60;;;4.70;;
31537;SDS011;18147;51.952;6.146;2023-06-14T04:20:09;15.07;;;5.15;;
31537;SDS011;18147;51.952;6.146;2023-06-14T04:22:35;12.57;;;4.60;;
31537;SDS011;18147;51.952;6.146;2023-06-14T04:25:03;7.78;;;4.05;;
31537;SDS011;18147;51.952;6.146;2023-06-14T04:27:32;9.02;;;4.43;;
31537;SDS011;18147;51.952;6.146;2023-06-14T04:30:01;6.45;;;4.18;;
31537;SDS011;18147;51.952;6.146;2023-06-14T04:32:34;11.40;;;4.82;;
31537;SDS011;18147;51.952;6.146;2023-06-14T04:35:09;11.05;;;4.45;;
31537;SDS011;18147;51.952;6.146;2023-06-14T04:37:40;11.02;;;4.38;;
31537;SDS011;18147;51.952;6.146;2023-06-14T04:40:11;9.18;;;4.18;;
31537;SDS011;18147;51.952;6.146;2023-06-14T04:42:37;8.48;;;4.30;;
31537;SDS011;18147;51.952;6.146;2023-06-14T04:45:11;8.53;;;4.33;;
31537;SDS011;18147;51.952;6.146;2023-06-14T04:47:41;8.05;;;3.90;;
31537;SDS011;18147;51.952;6.146;2023-06-14T04:50:11;6.43;;;3.75;;
31537;SDS011;18147;51.952;6.146;2023-06-14T04:52:40;10.55;;;5.00;;
31537;SDS011;18147;51.952;6.146;2023-06-14T04:55:11;6.82;;;3.80;;
31537;SDS011;18147;51.952;6.146;2023-06-14T04:57:36;11.52;;;3.85;;
31537;SDS011;18147;51.952;6.146;2023-06-14T05:00:07;9.27;;;4.10;;
31537;SDS011;18147;51.952;6.146;2023-06-14T05:02:38;8.02;;;4.28;;
31537;SDS011;18147;51.952;6.146;2023-06-14T05:05:06;6.97;;;3.80;;
31537;SDS011;18147;51.952;6.146;2023-06-14T05:07:32;10.52;;;4.10;;
31537;SDS011;18147;51.952;6.146;2023-06-14T05:09:59;8.75;;;4.63;;
31537;SDS011;18147;51.952;6.146;2023-06-14T05:12:25;11.20;;;4.25;;
31537;SDS011;18147;51.952;6.146;2023-06-14T05:14:51;12.57;;;4.00;;
31537;SDS011;18147;51.952;6.146;2023-06-14T05:17:19;11.57;;;4.03;;
31537;SDS011;18147;51.952;6.146;2023-06-14T05:19:45;10.20;;;4.18;;
31537;SDS011;18147;51.952;6.146;2023-06-14T05:22:11;5.93;;;4.10;;
31537;SDS011;18147;51.952;6.146;2023-06-14T05:24:36;6.47;;;4.00;;
31537;SDS011;18147;51.952;6.146;2023-06-14T05:27:02;9.05;;;4.00;;
31537;SDS011;18147;51.952;6.146;2023-06-14T05:29:28;10.60;;;4.20;;
31537;SDS011;18147;51.952;6.146;2023-06-14T05:31:53;7.90;;;3.70;;
31537;SDS011;18147;51.952;6.146;2023-06-14T05:34:19;6.30;;;3.63;;
31537;SDS011;18147;51.952;6.146;2023-06-14T05:36:45;7.30;;;3.58;;
31537;SDS011;18147;51.952;6.146;2023-06-14T05:39:10;7.15;;;3.90;;
31537;SDS011;18147;51.952;6.146;2023-06-14T05:41:36;6.55;;;4.15;;
31537;SDS011;18147;51.952;6.146;2023-06-14T05:44:01;6.50;;;4.20;;
31537;SDS011;18147;51.952;6.146;2023-06-14T05:46:27;8.45;;;4.22;;
31537;SDS011;18147;51.952;6.146;2023-06-14T05:48:53;5.10;;;4.05;;
31537;SDS011;18147;51.952;6.146;2023-06-14T05:51:20;10.77;;;3.65;;
31537;SDS011;18147;51.952;6.146;2023-06-14T05:53:46;7.38;;;3.67;;
31537;SDS011;18147;51.952;6.146;2023-06-14T05:56:13;8.68;;;3.83;;
31537;SDS011;18147;51.952;6.146;2023-06-14T05:58:40;8.07;;;4.43;;
31537;SDS011;18147;51.952;6.146;2023-06-14T06:01:06;8.60;;;4.22;;
31537;SDS011;18147;51.952;6.146;2023-06-14T06:03:35;8.98;;;4.20;;
31537;SDS011;18147;51.952;6.146;2023-06-14T06:06:00;8.00;;;4.05;;
31537;SDS011;18147;51.952;6.146;2023-06-14T06:08:28;8.65;;;4.00;;
31537;SDS011;18147;51.952;6.146;2023-06-14T06:10:54;6.97;;;3.58;;
31537;SDS011;18147;51.952;6.146;2023-06-14T06:13:20;9.32;;;4.03;;
31537;SDS011;18147;51.952;6.146;2023-06-14T06:15:46;8.07;;;4.22;;
31537;SDS011;18147;51.952;6.146;2023-06-14T06:18:11;7.32;;;4.10;;
31537;SDS011;18147;51.952;6.146;2023-06-14T06:20:37;5.75;;;3.90;;
31537;SDS011;18147;51.952;6.146;2023-06-14T06:23:08;7.40;;;4.15;;
31537;SDS011;18147;51.952;6.146;2023-06-14T06:25:35;7.50;;;3.85;;
31537;SDS011;18147;51.952;6.146;2023-06-14T06:28:02;7.43;;;3.83;;
31537;SDS011;18147;51.952;6.146;2023-06-14T06:30:27;7.05;;;3.88;;
31537;SDS011;18147;51.952;6.146;2023-06-14T06:32:53;6.03;;;4.00;;
31537;SDS011;18147;51.952;6.146;2023-06-14T06:35:18;8.25;;;3.90;;
31537;SDS011;18147;51.952;6.146;2023-06-14T06:37:44;9.35;;;3.97;;
31537;SDS011;18147;51.952;6.146;2023-06-14T06:40:10;6.55;;;3.78;;
31537;SDS011;18147;51.952;6.146;2023-06-14T06:42:37;4.28;;;3.25;;
31537;SDS011;18147;51.952;6.146;2023-06-14T06:45:05;5.32;;;3.40;;
31537;SDS011;18147;51.952;6.146;2023-06-14T06:47:32;6.72;;;3.25;;
31537;SDS011;18147;51.952;6.146;2023-06-14T06:49:57;8.55;;;3.65;;
31537;SDS011;18147;51.952;6.146;2023-06-14T06:52:23;8.23;;;3.50;;
31537;SDS011;18147;51.952;6.146;2023-06-14T06:54:49;7.22;;;3.35;;
31537;SDS011;18147;51.952;6.146;2023-06-14T06:57:15;4.07;;;3.40;;
31537;SDS011;18147;51.952;6.146;2023-06-14T06:59:41;9.90;;;2.65;;
31537;SDS011;18147;51.952;6.146;2023-06-14T07:02:06;7.60;;;3.05;;
31537;SDS011;18147;51.952;6.146;2023-06-14T07:04:32;6.50;;;2.72;;
31537;SDS011;18147;51.952;6.146;2023-06-14T07:06:57;4.72;;;2.40;;
31537;SDS011;18147;51.952;6.146;2023-06-14T07:09:23;4.63;;;2.65;;
31537;SDS011;18147;51.952;6.146;2023-06-14T07:11:49;5.68;;;2.78;;
31537;SDS011;18147;51.952;6.146;2023-06-14T07:14:15;5.80;;;2.90;;
31537;SDS011;18147;51.952;6.146;2023-06-14T07:16:41;4.68;;;2.50;;
31537;SDS011;18147;51.952;6.146;2023-06-14T07:19:08;7.05;;;2.65;;
31537;SDS011;18147;51.952;6.146;2023-06-14T07:21:34;4.88;;;2.45;;
31537;SDS011;18147;51.952;6.146;2023-06-14T07:24:02;7.22;;;3.13;;
31537;SDS011;18147;51.952;6.146;2023-06-14T07:26:29;3.90;;;2.20;;
31537;SDS011;18147;51.952;6.146;2023-06-14T07:28:54;9.98;;;2.80;;
31537;SDS011;18147;51.952;6.146;2023-06-14T07:31:20;5.97;;;2.47;;
31537;SDS011;18147;51.952;6.146;2023-06-14T07:33:46;5.00;;;2.28;;
31537;SDS011;18147;51.952;6.146;2023-06-14T07:36:11;3.50;;;2.35;;
31537;SDS011;18147;51.952;6.146;2023-06-14T07:38:37;4.40;;;2.33;;
31537;SDS011;18147;51.952;6.146;2023-06-14T07:41:04;7.90;;;2.47;;
31537;SDS011;18147;51.952;6.146;2023-06-14T07:43:30;6.50;;;2.30;;
31537;SDS011;18147;51.952;6.146;2023-06-14T07:45:55;4.18;;;2.53;;
31537;SDS011;18147;51.952;6.146;2023-06-14T07:48:22;6.22;;;2.58;;
31537;SDS011;18147;51.952;6.146;2023-06-14T07:50:48;6.88;;;3.28;;
31537;SDS011;18147;51.952;6.146;2023-06-14T07:53:13;9.18;;;3.10;;
31537;SDS011;18147;51.952;6.146;2023-06-14T07:55:40;9.15;;;2.90;;
31537;SDS011;18147;51.952;6.146;2023-06-14T07:58:09;6.55;;;2.63;;
31537;SDS011;18147;51.952;6.146;2023-06-14T08:00:36;9.65;;;3.03;;
31537;SDS011;18147;51.952;6.146;2023-06-14T08:03:01;4.28;;;2.72;;
31537;SDS011;18147;51.952;6.146;2023-06-14T08:05:28;5.85;;;2.45;;
31537;SDS011;18147;51.952;6.146;2023-06-14T08:07:54;5.57;;;2.58;;
31537;SDS011;18147;51.952;6.146;2023-06-14T08:10:20;5.95;;;2.65;;
31537;SDS011;18147;51.952;6.146;2023-06-14T08:12:46;6.55;;;2.97;;
31537;SDS011;18147;51.952;6.146;2023-06-14T08:15:12;5.50;;;2.50;;
31537;SDS011;18147;51.952;6.146;2023-06-14T08:17:37;3.40;;;2.85;;
31537;SDS011;18147;51.952;6.146;2023-06-14T08:20:06;8.73;;;2.67;;
31537;SDS011;18147;51.952;6.146;2023-06-14T08:22:36;7.10;;;2.70;;
31537;SDS011;18147;51.952;6.146;2023-06-14T08:25:06;5.20;;;2.42;;
31537;SDS011;18147;51.952;6.146;2023-06-14T08:27:32;9.93;;;3.00;;
31537;SDS011;18147;51.952;6.146;2023-06-14T08:29:57;6.00;;;2.63;;
31537;SDS011;18147;51.952;6.146;2023-06-14T08:32:23;7.85;;;2.70;;
31537;SDS011;18147;51.952;6.146;2023-06-14T08:34:48;4.70;;;2.42;;
31537;SDS011;18147;51.952;6.146;2023-06-14T08:37:14;12.40;;;2.50;;
31537;SDS011;18147;51.952;6.146;2023-06-14T08:39:41;4.78;;;2.25;;
31537;SDS011;18147;51.952;6.146;2023-06-14T08:42:07;5.10;;;2.42;;
31537;SDS011;18147;51.952;6.146;2023-06-14T08:44:36;7.15;;;2.45;;
31537;SDS011;18147;51.952;6.146;2023-06-14T08:47:01;5.75;;;3.13;;
31537;SDS011;18147;51.952;6.146;2023-06-14T08:49:31;3.63;;;2.60;;
31537;SDS011;18147;51.952;6.146;2023-06-14T08:51:58;7.60;;;3.00;;
31537;SDS011;18147;51.952;6.146;2023-06-14T08:54:28;3.70;;;2.25;;
31537;SDS011;18147;51.952;6.146;2023-06-14T08:56:59;4.88;;;2.40;;
31537;SDS011;18147;51.952;6.146;2023-06-14T08:59:28;6.60;;;2.35;;
31537;SDS011;18147;51.952;6.146;2023-06-14T09:01:54;6.03;;;2.50;;
31537;SDS011;18147;51.952;6.146;2023-06-14T09:04:28;4.93;;;2.33;;
31537;SDS011;18147;51.952;6.146;2023-06-14T09:06:55;3.00;;;2.10;;
31537;SDS011;18147;51.952;6.146;2023-06-14T09:09:21;4.22;;;2.38;;
31537;SDS011;18147;51.952;6.146;2023-06-14T09:11:49;5.70;;;2.10;;
31537;SDS011;18147;51.952;6.146;2023-06-14T09:14:15;5.72;;;2.10;;
31537;SDS011;18147;51.952;6.146;2023-06-14T09:16:41;7.25;;;2.20;;
31537;SDS011;18147;51.952;6.146;2023-06-14T09:19:07;6.85;;;2.47;;
31537;SDS011;18147;51.952;6.146;2023-06-14T09:21:36;3.45;;;1.98;;
31537;SDS011;18147;51.952;6.146;2023-06-14T09:24:02;3.78;;;1.98;;
31537;SDS011;18147;51.952;6.146;2023-06-14T09:26:29;4.13;;;2.35;;
31537;SDS011;18147;51.952;6.146;2023-06-14T09:28:55;4.53;;;2.30;;
31537;SDS011;18147;51.952;6.146;2023-06-14T09:31:20;5.32;;;2.53;;
31537;SDS011;18147;51.952;6.146;2023-06-14T09:33:49;4.15;;;2.25;;
31537;SDS011;18147;51.952;6.146;2023-06-14T09:36:22;3.78;;;2.55;;
31537;SDS011;18147;51.952;6.146;2023-06-14T09:41:39;6.30;;;2.33;;
31537;SDS011;18147;51.952;6.146;2023-06-14T09:44:08;5.03;;;2.10;;
31537;SDS011;18147;51.952;6.146;2023-06-14T09:46:37;4.70;;;2.10;;
31537;SDS011;18147;51.952;6.146;2023-06-14T09:49:06;8.43;;;2.08;;
31537;SDS011;18147;51.952;6.146;2023-06-14T09:51:36;4.10;;;2.00;;
31537;SDS011;18147;51.952;6.146;2023-06-14T09:54:07;3.80;;;2.20;;
31537;SDS011;18147;51.952;6.146;2023-06-14T09:56:41;3.17;;;1.60;;
31537;SDS011;18147;51.952;6.146;2023-06-14T09:59:12;3.28;;;1.50;;
31537;SDS011;18147;51.952;6.146;2023-06-14T10:01:42;2.75;;;2.15;;
31537;SDS011;18147;51.952;6.146;2023-06-14T10:04:09;7.45;;;2.13;;
31537;SDS011;18147;51.952;6.146;2023-06-14T10:06:36;9.05;;;2.33;;
31537;SDS011;18147;51.952;6.146;2023-06-14T10:09:09;1.85;;;1.70;;
31537;SDS011;18147;51.952;6.146;2023-06-14T10:11:37;6.53;;;2.33;;
31537;SDS011;18147;51.952;6.146;2023-06-14T10:14:10;3.95;;;1.85;;
31537;SDS011;18147;51.952;6.146;2023-06-14T10:16:56;4.05;;;2.17;;
31537;SDS011;18147;51.952;6.146;2023-06-14T10:19:34;4.63;;;2.92;;
31537;SDS011;18147;51.952;6.146;2023-06-14T10:22:34;4.43;;;1.80;;
31537;SDS011;18147;51.952;6.146;2023-06-14T10:25:07;3.70;;;2.00;;
31537;SDS011;18147;51.952;6.146;2023-06-14T10:27:38;7.38;;;2.30;;
31537;SDS011;18147;51.952;6.146;2023-06-14T10:30:16;2.20;;;1.90;;
31537;SDS011;18147;51.952;6.146;2023-06-14T10:33:02;4.88;;;2.38;;
31537;SDS011;18147;51.952;6.146;2023-06-14T10:35:32;9.90;;;2.17;;
31537;SDS011;18147;51.952;6.146;2023-06-14T10:38:06;7.80;;;2.42;;
31537;SDS011;18147;51.952;6.146;2023-06-14T10:40:36;6.78;;;2.50;;
31537;SDS011;18147;51.952;6.146;2023-06-14T10:43:22;5.80;;;2.38;;
31537;SDS011;18147;51.952;6.146;2023-06-14T10:48:48;8.75;;;2.17;;
31537;SDS011;18147;51.952;6.146;2023-06-14T10:51:20;8.32;;;2.58;;
31537;SDS011;18147;51.952;6.146;2023-06-14T10:53:49;6.70;;;2.63;;
31537;SDS011;18147;51.952;6.146;2023-06-14T10:56:28;4.45;;;2.22;;
31537;SDS011;18147;51.952;6.146;2023-06-14T10:58:56;2.65;;;2.20;;
31537;SDS011;18147;51.952;6.146;2023-06-14T11:01:47;3.58;;;2.42;;
31537;SDS011;18147;51.952;6.146;2023-06-14T11:04:17;2.72;;;2.50;;
31537;SDS011;18147;51.952;6.146;2023-06-14T11:06:49;4.40;;;2.40;;
31537;SDS011;18147;51.952;6.146;2023-06-14T11:11:57;4.97;;;2.22;;
31537;SDS011;18147;51.952;6.146;2023-06-14T11:14:28;6.15;;;2.30;;
31537;SDS011;18147;51.952;6.146;2023-06-14T11:19:23;3.80;;;2.00;;
31537;SDS011;18147;51.952;6.146;2023-06-14T11:21:50;6.88;;;2.50;;
31537;SDS011;18147;51.952;6.146;2023-06-14T11:24:16;2.33;;;2.13;;
31537;SDS011;18147;51.952;6.146;2023-06-14T11:26:42;5.85;;;2.47;;
31537;SDS011;18147;51.952;6.146;2023-06-14T11:29:14;6.03;;;2.67;;
31537;SDS011;18147;51.952;6.146;2023-06-14T11:31:44;3.28;;;1.92;;
31537;SDS011;18147;51.952;6.146;2023-06-14T11:36:44;2.92;;;1.77;;
31537;SDS011;18147;51.952;6.146;2023-06-14T11:39:11;7.57;;;2.10;;
31537;SDS011;18147;51.952;6.146;2023-06-14T11:41:41;5.15;;;2.28;;
31537;SDS011;18147;51.952;6.146;2023-06-14T11:44:10;4.40;;;2.40;;
31537;SDS011;18147;51.952;6.146;2023-06-14T11:46:42;7.38;;;2.28;;
31537;SDS011;18147;51.952;6.146;2023-06-14T11:49:13;5.10;;;2.30;;
31537;SDS011;18147;51.952;6.146;2023-06-14T11:51:44;2.35;;;2.05;;
31537;SDS011;18147;51.952;6.146;2023-06-14T11:54:13;3.97;;;2.00;;
31537;SDS011;18147;51.952;6.146;2023-06-14T11:56:43;2.17;;;2.00;;
31537;SDS011;18147;51.952;6.146;2023-06-14T11:59:13;3.30;;;1.98;;
31537;SDS011;18147;51.952;6.146;2023-06-14T12:01:44;5.78;;;2.40;;
31537;SDS011;18147;51.952;6.146;2023-06-14T12:06:44;2.05;;;1.92;;
31537;SDS011;18147;51.952;6.146;2023-06-14T12:09:13;3.28;;;2.17;;
31537;SDS011;18147;51.952;6.146;2023-06-14T12:11:42;8.48;;;2.55;;
31537;SDS011;18147;51.952;6.146;2023-06-14T12:14:11;5.20;;;2.28;;
31537;SDS011;18147;51.952;6.146;2023-06-14T12:16:38;7.72;;;2.15;;
31537;SDS011;18147;51.952;6.146;2023-06-14T12:19:08;4.22;;;1.70;;
31537;SDS011;18147;51.952;6.146;2023-06-14T12:21:41;5.05;;;1.60;;
31537;SDS011;18147;51.952;6.146;2023-06-14T12:24:13;4.40;;;2.10;;
31537;SDS011;18147;51.952;6.146;2023-06-14T12:26:44;3.45;;;1.65;;
31537;SDS011;18147;51.952;6.146;2023-06-14T12:29:12;1.85;;;1.67;;
31537;SDS011;18147;51.952;6.146;2023-06-14T12:31:41;3.38;;;1.73;;
31537;SDS011;18147;51.952;6.146;2023-06-14T12:34:13;6.70;;;1.83;;
31537;SDS011;18147;51.952;6.146;2023-06-14T12:36:38;9.13;;;1.95;;
31537;SDS011;18147;51.952;6.146;2023-06-14T12:39:11;5.03;;;1.80;;
31537;SDS011;18147;51.952;6.146;2023-06-14T12:41:37;6.88;;;1.45;;
31537;SDS011;18147;51.952;6.146;2023-06-14T12:44:02;2.53;;;1.60;;
31537;SDS011;18147;51.952;6.146;2023-06-14T12:46:32;10.68;;;2.10;;
31537;SDS011;18147;51.952;6.146;2023-06-14T12:48:58;2.13;;;1.60;;
31537;SDS011;18147;51.952;6.146;2023-06-14T12:51:24;4.63;;;1.65;;
31537;SDS011;18147;51.952;6.146;2023-06-14T12:53:50;2.60;;;1.33;;
31537;SDS011;18147;51.952;6.146;2023-06-14T12:56:16;5.63;;;1.90;;
31537;SDS011;18147;51.952;6.146;2023-06-14T12:58:42;6.25;;;1.70;;
31537;SDS011;18147;51.952;6.146;2023-06-14T13:01:14;6.20;;;1.70;;
31537;SDS011;18147;51.952;6.146;2023-06-14T13:03:41;4.82;;;1.77;;
31537;SDS011;18147;51.952;6.146;2023-06-14T13:06:20;3.30;;;1.58;;
31537;SDS011;18147;51.952;6.146;2023-06-14T13:08:46;3.88;;;1.40;;
31537;SDS011;18147;51.952;6.146;2023-06-14T13:11:11;5.28;;;1.45;;
31537;SDS011;18147;51.952;6.146;2023-06-14T13:13:43;3.40;;;1.30;;
31537;SDS011;18147;51.952;6.146;2023-06-14T13:16:12;4.45;;;1.77;;
31537;SDS011;18147;51.952;6.146;2023-06-14T13:18:43;3.60;;;1.60;;
31537;SDS011;18147;51.952;6.146;2023-06-14T13:21:11;2.47;;;1.60;;
31537;SDS011;18147;51.952;6.146;2023-06-14T13:23:37;2.53;;;1.50;;
31537;SDS011;18147;51.952;6.146;2023-06-14T13:26:03;1.98;;;1.38;;
31537;SDS011;18147;51.952;6.146;2023-06-14T13:28:28;3.22;;;1.60;;
31537;SDS011;18147;51.952;6.146;2023-06-14T13:30:55;3.38;;;1.45;;
31537;SDS011;18147;51.952;6.146;2023-06-14T13:33:21;3.85;;;1.80;;
31537;SDS011;18147;51.952;6.146;2023-06-14T13:35:49;2.15;;;1.60;;
31537;SDS011;18147;51.952;6.146;2023-06-14T13:38:14;3.15;;;1.45;;
31537;SDS011;18147;51.952;6.146;2023-06-14T13:40:42;4.07;;;1.30;;
31537;SDS011;18147;51.952;6.146;2023-06-14T13:43:08;2.80;;;1.60;;
31537;SDS011;18147;51.952;6.146;2023-06-14T13:45:37;2.67;;;1.30;;
31537;SDS011;18147;51.952;6.146;2023-06-14T13:48:03;5.43;;;1.55;;
31537;SDS011;18147;51.952;6.146;2023-06-14T13:50:28;2.10;;;1.40;;
31537;SDS011;18147;51.952;6.146;2023-06-14T13:52:54;3.72;;;1.48;;
31537;SDS011;18147;51.952;6.146;2023-06-14T13:55:19;2.92;;;1.65;;
31537;SDS011;18147;51.952;6.146;2023-06-14T13:57:45;3.40;;;1.73;;
31537;SDS011;18147;51.952;6.146;2023-06-14T14:00:11;7.82;;;2.00;;
31537;SDS011;18147;51.952;6.146;2023-06-14T14:02:37;3.72;;;1.70;;
31537;SDS011;18147;51.952;6.146;2023-06-14T14:05:12;2.22;;;1.67;;
31537;SDS011;18147;51.952;6.146;2023-06-14T14:07:41;3.58;;;1.52;;
31537;SDS011;18147;51.952;6.146;2023-06-14T14:10:07;7.32;;;1.70;;
31537;SDS011;18147;51.952;6.146;2023-06-14T14:12:44;4.15;;;2.13;;
31537;SDS011;18147;51.952;6.146;2023-06-14T14:15:11;7.93;;;1.77;;
31537;SDS011;18147;51.952;6.146;2023-06-14T14:17:47;4.95;;;1.95;;
31537;SDS011;18147;51.952;6.146;2023-06-14T14:20:12;3.00;;;1.70;;
31537;SDS011;18147;51.952;6.146;2023-06-14T14:22:43;2.58;;;1.45;;
31537;SDS011;18147;51.952;6.146;2023-06-14T14:25:10;3.30;;;1.77;;
31537;SDS011;18147;51.952;6.146;2023-06-14T14:27:37;6.00;;;2.13;;
31537;SDS011;18147;51.952;6.146;2023-06-14T14:30:13;3.28;;;1.77;;
31537;SDS011;18147;51.952;6.146;2023-06-14T14:32:42;2.58;;;1.80;;
31537;SDS011;18147;51.952;6.146;2023-06-14T14:35:10;8.38;;;2.15;;
31537;SDS011;18147;51.952;6.146;2023-06-14T14:37:37;2.67;;;1.55;;
31537;SDS011;18147;51.952;6.146;2023-06-14T14:40:02;3.33;;;1.55;;
31537;SDS011;18147;51.952;6.146;2023-06-14T14:42:28;2.58;;;1.40;;
31537;SDS011;18147;51.952;6.146;2023-06-14T14:44:54;2.58;;;1.35;;
31537;SDS011;18147;51.952;6.146;2023-06-14T14:47:20;4.18;;;1.70;;
31537;SDS011;18147;51.952;6.146;2023-06-14T14:49:45;1.88;;;1.42;;
31537;SDS011;18147;51.952;6.146;2023-06-14T14:52:10;7.32;;;1.98;;
31537;SDS011;18147;51.952;6.146;2023-06-14T14:54:38;2.08;;;1.88;;
31537;SDS011;18147;51.952;6.146;2023-06-14T14:57:10;4.70;;;1.80;;
31537;SDS011;18147;51.952;6.146;2023-06-14T14:59:36;10.23;;;1.80;;
31537;SDS011;18147;51.952;6.146;2023-06-14T15:02:02;5.95;;;1.65;;
31537;SDS011;18147;51.952;6.146;2023-06-14T15:04:27;2.60;;;1.60;;
31537;SDS011;18147;51.952;6.146;2023-06-14T15:06:53;3.88;;;2.10;;
31537;SDS011;18147;51.952;6.146;2023-06-14T15:09:18;7.03;;;1.80;;
31537;SDS011;18147;51.952;6.146;2023-06-14T15:11:44;7.55;;;2.10;;
31537;SDS011;18147;51.952;6.146;2023-06-14T15:14:10;5.32;;;1.60;;